createdAt,value
2019-02-22T00:02:29.935Z,26.63
2019-02-22T00:04:57.405Z,26.83
2019-02-22T00:07:24.847Z,27.13
2019-02-22T00:09:52.312Z,26.80
2019-02-22T00:12:19.741Z,26.70
2019-02-22T00:14:47.207Z,26.43
2019-02-22T00:17:14.639Z,26.73
2019-02-22T00:19:42.096Z,26.60
2019-02-22T00:22:09.533Z,27.80
2019-02-22T00:24:36.990Z,28.37
2019-02-22T00:27:04.438Z,26.80
2019-02-22T00:29:31.935Z,28.10
2019-02-22T00:31:59.364Z,27.87
2019-02-22T00:34:26.824Z,29.03
2019-02-22T00:36:54.291Z,27.20
2019-02-22T00:39:21.755Z,27.60
2019-02-22T00:41:49.195Z,26.67
2019-02-22T00:44:16.636Z,25.57
2019-02-22T00:46:44.102Z,27.03
2019-02-22T00:49:11.543Z,26.33
2019-02-22T00:51:39.112Z,27.57
2019-02-22T00:54:06.547Z,26.57
2019-02-22T00:56:34.042Z,27.37
2019-02-22T00:59:01.500Z,27.23
2019-02-22T01:01:29.371Z,28.60
2019-02-22T01:03:56.819Z,26.77
2019-02-22T01:06:24.270Z,28.47
2019-02-22T01:08:51.714Z,27.73
2019-02-22T01:11:19.190Z,27.90
2019-02-22T01:13:46.618Z,29.53
2019-02-22T01:16:14.098Z,28.97
2019-02-22T01:18:41.532Z,28.63
2019-02-22T01:21:09.014Z,29.87
2019-02-22T01:23:36.445Z,29.00
2019-02-22T01:26:03.876Z,31.27
2019-02-22T01:28:31.319Z,29.53
2019-02-22T01:30:58.805Z,30.50
2019-02-22T01:33:26.216Z,30.70
2019-02-22T01:35:53.672Z,32.10
2019-02-22T01:38:21.149Z,30.23
2019-02-22T01:40:48.685Z,30.67
2019-02-22T01:43:16.132Z,29.60
2019-02-22T01:45:43.591Z,31.67
2019-02-22T01:48:11.080Z,32.77
2019-02-22T01:50:38.501Z,32.17
2019-02-22T01:53:05.994Z,32.13
2019-02-22T01:55:33.427Z,33.15
2019-02-22T01:58:00.873Z,34.30
2019-02-22T02:00:28.338Z,28.37
2019-02-22T02:02:55.814Z,32.53
2019-02-22T02:05:23.259Z,31.93
2019-02-22T02:07:50.725Z,32.13
2019-02-22T02:10:18.171Z,32.17
2019-02-22T02:12:45.633Z,31.53
2019-02-22T02:15:13.063Z,31.73
2019-02-22T02:17:40.528Z,30.57
2019-02-22T02:20:08.310Z,31.20
2019-02-22T02:22:35.734Z,31.10
2019-02-22T02:25:03.504Z,31.85
2019-02-22T02:27:30.959Z,30.70
2019-02-22T02:29:58.415Z,30.37
2019-02-22T02:32:25.887Z,30.77
2019-02-22T02:34:53.328Z,31.83
2019-02-22T02:37:20.804Z,28.92
2019-02-22T02:39:48.283Z,29.73
2019-02-22T02:42:15.704Z,29.90
2019-02-22T02:44:43.160Z,30.77
2019-02-22T02:47:10.603Z,29.83
2019-02-22T02:49:38.067Z,31.73
2019-02-22T02:52:05.500Z,29.97
2019-02-22T02:54:32.964Z,30.50
2019-02-22T02:57:00.436Z,29.93
2019-02-22T02:59:28.133Z,30.93
2019-02-22T03:01:55.780Z,29.97
2019-02-22T03:04:23.255Z,30.03
2019-02-22T03:06:59.141Z,29.87
2019-02-22T03:09:26.596Z,31.03
2019-02-22T03:11:54.038Z,29.37
2019-02-22T03:14:21.523Z,29.25
2019-02-22T03:16:48.963Z,27.00
2019-02-22T03:19:16.434Z,29.10
2019-02-22T03:21:43.895Z,28.30
2019-02-22T03:24:11.363Z,27.23
2019-02-22T03:26:38.829Z,27.20
2019-02-22T03:29:06.277Z,27.70
2019-02-22T03:31:33.719Z,28.63
2019-02-22T03:34:01.173Z,26.57
2019-02-22T03:36:28.659Z,24.87
2019-02-22T03:38:56.116Z,26.50
2019-02-22T03:41:32.301Z,27.37
2019-02-22T03:43:52.827Z,28.60
2019-02-22T03:46:20.282Z,28.30
2019-02-22T03:48:47.739Z,27.27
2019-02-22T03:51:15.210Z,28.47
2019-02-22T03:53:52.188Z,27.65
2019-02-22T03:56:19.636Z,27.48
2019-02-22T03:58:47.089Z,28.20
2019-02-22T04:01:14.553Z,28.70
2019-02-22T04:03:41.988Z,28.73
2019-02-22T04:06:09.457Z,27.97
2019-02-22T04:08:36.927Z,28.27
2019-02-22T04:11:04.409Z,27.13
2019-02-22T04:13:31.887Z,28.53
2019-02-22T04:15:59.330Z,26.53
2019-02-22T04:18:26.758Z,28.37
2019-02-22T04:20:54.243Z,27.93
2019-02-22T04:23:21.721Z,27.93
2019-02-22T04:25:49.188Z,29.63
2019-02-22T04:28:16.625Z,28.57
2019-02-22T04:30:44.100Z,28.33
2019-02-22T04:33:11.544Z,28.43
2019-02-22T04:35:39.007Z,28.07
2019-02-22T04:38:06.455Z,28.07
2019-02-22T04:40:33.958Z,28.57
2019-02-22T04:43:01.411Z,28.13
2019-02-22T04:45:28.861Z,28.77
2019-02-22T04:47:56.310Z,28.20
2019-02-22T04:50:23.775Z,28.35
2019-02-22T04:52:51.229Z,26.48
2019-02-22T04:55:18.691Z,28.62
2019-02-22T04:57:46.142Z,28.87
2019-02-22T05:00:13.583Z,29.43
2019-02-22T05:02:41.080Z,29.93
2019-02-22T05:05:08.707Z,30.07
2019-02-22T05:07:36.272Z,29.73
2019-02-22T05:10:03.921Z,29.70
2019-02-22T05:12:31.373Z,29.27
2019-02-22T05:15:11.399Z,30.30
2019-02-22T05:17:28.086Z,29.20
2019-02-22T05:19:55.530Z,30.17
2019-02-22T05:22:23.023Z,29.95
2019-02-22T05:24:50.475Z,31.07
2019-02-22T05:27:17.938Z,31.00
2019-02-22T05:29:45.376Z,30.92
2019-02-22T05:32:12.835Z,30.77
2019-02-22T05:34:40.280Z,31.12
2019-02-22T05:37:07.748Z,30.00
2019-02-22T05:39:35.229Z,31.60
2019-02-22T05:42:02.699Z,32.15
2019-02-22T05:44:30.215Z,31.30
2019-02-22T05:47:00.588Z,31.57
2019-02-22T05:49:26.891Z,31.25
2019-02-22T05:51:54.341Z,31.40
2019-02-22T05:54:21.785Z,32.93
2019-02-22T05:56:49.232Z,30.63
2019-02-22T05:59:16.707Z,30.97
2019-02-22T06:01:44.137Z,31.67
2019-02-22T06:04:11.596Z,31.17
2019-02-22T06:06:39.026Z,31.53
2019-02-22T06:09:06.488Z,31.33
2019-02-22T06:11:33.920Z,30.25
2019-02-22T06:14:01.357Z,30.80
2019-02-22T06:16:28.782Z,31.73
2019-02-22T06:18:56.249Z,31.17
2019-02-22T06:21:23.664Z,26.07
2019-02-22T06:23:51.104Z,27.83
2019-02-22T06:26:18.526Z,27.02
2019-02-22T06:28:45.972Z,26.57
2019-02-22T06:31:13.401Z,26.15
2019-02-22T06:33:40.853Z,25.23
2019-02-22T06:36:08.275Z,24.93
2019-02-22T06:38:35.735Z,25.33
2019-02-22T06:41:03.214Z,24.03
2019-02-22T06:43:30.625Z,25.10
2019-02-22T06:45:58.070Z,25.40
2019-02-22T06:48:25.493Z,25.83
2019-02-22T06:50:52.963Z,27.85
2019-02-22T06:53:20.439Z,26.75
2019-02-22T06:55:48.182Z,25.50
2019-02-22T06:58:15.707Z,25.68
2019-02-22T07:00:43.136Z,24.67
2019-02-22T07:03:10.567Z,25.45
2019-02-22T07:05:38.093Z,24.10
2019-02-22T07:08:05.487Z,22.57
2019-02-22T07:10:52.462Z,23.75
2019-02-22T07:13:19.887Z,21.97
2019-02-22T07:15:47.315Z,23.45
2019-02-22T07:18:14.776Z,22.37
2019-02-22T07:20:42.218Z,22.63
2019-02-22T07:23:09.635Z,23.15
2019-02-22T07:25:37.066Z,20.08
2019-02-22T07:28:04.503Z,19.62
2019-02-22T07:30:31.953Z,22.20
2019-02-22T07:32:59.456Z,20.60
2019-02-22T07:35:27.051Z,20.57
2019-02-22T07:37:54.487Z,19.62
2019-02-22T07:40:22.024Z,20.85
2019-02-22T07:42:49.406Z,18.95
2019-02-22T07:45:16.860Z,19.82
2019-02-22T07:47:44.355Z,19.73
2019-02-22T07:50:11.819Z,18.45
2019-02-22T07:52:39.245Z,17.45
2019-02-22T07:55:07.388Z,18.12
2019-02-22T07:57:34.837Z,17.17
2019-02-22T08:00:02.333Z,16.37
2019-02-22T08:02:29.793Z,16.80
2019-02-22T08:04:57.242Z,16.65
2019-02-22T08:07:24.715Z,15.40
2019-02-22T08:09:52.174Z,15.80
2019-02-22T08:12:19.621Z,16.07
2019-02-22T08:14:47.075Z,15.00
2019-02-22T08:17:14.800Z,15.35
2019-02-22T08:19:43.195Z,14.45
2019-02-22T08:22:10.682Z,14.43
2019-02-22T08:24:38.116Z,15.03
2019-02-22T08:27:05.568Z,13.58
2019-02-22T08:29:33.000Z,11.68
2019-02-22T08:32:00.498Z,13.20
2019-02-22T08:34:27.943Z,12.63
2019-02-22T08:36:55.379Z,12.93
2019-02-22T08:39:22.836Z,12.40
2019-02-22T08:41:50.290Z,12.25
2019-02-22T08:44:17.714Z,11.10
2019-02-22T08:46:45.175Z,11.45
2019-02-22T08:49:12.613Z,11.43
2019-02-22T08:51:40.078Z,12.03
2019-02-22T08:54:07.516Z,10.70
2019-02-22T08:56:34.975Z,11.35
2019-02-22T08:59:02.410Z,11.03
2019-02-22T09:01:29.852Z,11.43
2019-02-22T09:03:57.295Z,10.23
2019-02-22T09:06:24.742Z,10.58
2019-02-22T09:08:52.190Z,10.50
2019-02-22T09:11:19.626Z,9.80
2019-02-22T09:13:47.086Z,9.85
2019-02-22T09:16:14.516Z,9.33
2019-02-22T09:18:41.964Z,10.28
2019-02-22T09:21:09.390Z,9.23
2019-02-22T09:23:36.885Z,8.88
2019-02-22T09:26:04.298Z,8.53
2019-02-22T09:28:31.780Z,8.43
2019-02-22T09:30:59.203Z,8.58
2019-02-22T09:33:26.651Z,8.75
2019-02-22T09:35:54.087Z,6.85
2019-02-22T09:38:21.522Z,8.23
2019-02-22T09:40:48.968Z,7.53
2019-02-22T09:43:16.407Z,7.70
2019-02-22T09:45:43.818Z,7.28
2019-02-22T09:48:11.275Z,7.28
2019-02-22T09:50:38.705Z,6.92
2019-02-22T09:53:06.442Z,7.30
2019-02-22T09:55:33.864Z,7.42
2019-02-22T09:58:01.291Z,6.65
2019-02-22T10:00:28.731Z,6.70
2019-02-22T10:02:56.174Z,6.78
2019-02-22T10:05:23.619Z,6.08
2019-02-22T10:07:51.037Z,6.05
2019-02-22T10:10:18.832Z,7.33
2019-02-22T10:12:46.260Z,5.62
2019-02-22T10:15:13.739Z,6.30
2019-02-22T10:17:41.210Z,5.62
2019-02-22T10:20:08.804Z,6.10
2019-02-22T10:22:36.324Z,5.40
2019-02-22T10:25:03.989Z,5.00
2019-02-22T10:27:31.410Z,5.53
2019-02-22T10:29:58.863Z,5.58
2019-02-22T10:32:26.292Z,5.53
2019-02-22T10:34:53.746Z,4.97
2019-02-22T10:37:21.191Z,5.67
2019-02-22T10:39:48.988Z,4.92
2019-02-22T10:42:16.428Z,5.40
2019-02-22T10:44:43.965Z,4.55
2019-02-22T10:47:11.472Z,4.90
2019-02-22T10:49:58.377Z,4.40
2019-02-22T10:52:25.888Z,4.60
2019-02-22T10:54:53.332Z,4.97
2019-02-22T10:57:20.814Z,4.80
2019-02-22T10:59:48.290Z,3.80
2019-02-22T11:02:15.742Z,4.45
2019-02-22T11:04:43.235Z,4.35
2019-02-22T11:07:10.714Z,4.53
2019-02-22T11:09:38.135Z,4.53
2019-02-22T11:12:05.634Z,4.97
2019-02-22T11:14:33.095Z,4.62
2019-02-22T11:17:00.602Z,4.30
2019-02-22T11:19:28.049Z,5.05
2019-02-22T11:21:55.530Z,4.35
2019-02-22T11:24:23.033Z,3.85
2019-02-22T11:26:50.552Z,4.20
2019-02-22T11:29:17.998Z,3.98
2019-02-22T11:31:45.505Z,5.15
2019-02-22T11:34:13.016Z,3.87
2019-02-22T11:36:40.491Z,4.60
2019-02-22T11:39:08.183Z,4.05
2019-02-22T11:41:35.689Z,4.25
2019-02-22T11:44:03.165Z,3.67
2019-02-22T11:46:30.622Z,4.10
2019-02-22T11:48:58.055Z,3.65
2019-02-22T11:51:25.527Z,3.80
2019-02-22T11:53:52.966Z,3.72
2019-02-22T11:56:20.523Z,3.72
2019-02-22T11:58:47.983Z,3.70
2019-02-22T12:01:15.531Z,3.58
2019-02-22T12:03:42.980Z,4.00
2019-02-22T12:06:10.433Z,3.42
2019-02-22T12:08:37.888Z,3.92
2019-02-22T12:11:05.660Z,4.00
2019-02-22T12:13:33.122Z,3.70
2019-02-22T12:16:00.563Z,3.87
2019-02-22T12:18:27.998Z,3.62
2019-02-22T12:20:55.427Z,4.80
2019-02-22T12:23:22.883Z,4.53
2019-02-22T12:25:50.307Z,4.67
2019-02-22T12:28:17.756Z,4.47
2019-02-22T12:30:45.178Z,4.83
2019-02-22T12:33:12.658Z,4.67
2019-02-22T12:35:40.440Z,4.72
2019-02-22T12:38:07.919Z,4.85
2019-02-22T12:40:35.502Z,4.37
2019-02-22T12:43:02.965Z,5.03
2019-02-22T12:45:30.415Z,4.42
2019-02-22T12:47:57.869Z,4.53
2019-02-22T12:50:25.290Z,4.72
2019-02-22T12:52:52.825Z,4.85
2019-02-22T12:55:20.242Z,4.33
2019-02-22T12:57:47.696Z,4.45
2019-02-22T13:00:15.250Z,4.25
2019-02-22T13:02:42.752Z,5.05
2019-02-22T13:05:12.475Z,4.03
2019-02-22T13:07:39.903Z,5.20
2019-02-22T13:10:07.776Z,4.50
2019-02-22T13:12:35.200Z,4.75
2019-02-22T13:15:13.361Z,5.22
2019-02-22T13:17:31.970Z,4.80
2019-02-22T13:19:59.418Z,4.90
2019-02-22T13:22:26.843Z,4.40
2019-02-22T13:24:54.334Z,4.78
2019-02-22T13:27:21.765Z,4.50
2019-02-22T13:29:49.293Z,4.65
2019-02-22T13:32:16.726Z,4.30
2019-02-22T13:34:44.177Z,4.28
2019-02-22T13:37:11.611Z,4.90
2019-02-22T13:39:39.183Z,4.92
2019-02-22T13:42:06.618Z,5.08
2019-02-22T13:44:34.091Z,4.87
2019-02-22T13:47:01.547Z,5.10
2019-02-22T13:49:29.005Z,5.10
2019-02-22T13:51:56.445Z,4.83
2019-02-22T13:54:24.191Z,4.67
2019-02-22T13:56:51.636Z,4.78
2019-02-22T13:59:19.083Z,4.50
2019-02-22T14:01:46.647Z,4.03
2019-02-22T14:04:14.153Z,4.03
2019-02-22T14:06:41.565Z,3.40
2019-02-22T14:09:09.010Z,2.95
2019-02-22T14:11:36.466Z,3.08
2019-02-22T14:14:03.949Z,3.72
2019-02-22T14:16:31.378Z,3.55
2019-02-22T14:18:58.807Z,3.70
2019-02-22T14:21:26.278Z,3.62
2019-02-22T14:23:53.734Z,3.90
2019-02-22T14:26:21.499Z,3.72
2019-02-22T14:28:48.915Z,4.25
2019-02-22T14:31:16.508Z,3.20
2019-02-22T14:33:43.963Z,3.70
2019-02-22T14:36:11.383Z,2.87
2019-02-22T14:38:39.026Z,2.00
2019-02-22T14:41:06.571Z,1.70
2019-02-22T14:43:34.023Z,1.70
2019-02-22T14:46:01.458Z,2.20
2019-02-22T14:48:28.899Z,2.37
2019-02-22T14:50:56.342Z,1.80
2019-02-22T14:53:23.783Z,1.92
2019-02-22T14:55:51.220Z,2.50
2019-02-22T14:58:18.630Z,2.05
2019-02-22T15:00:46.275Z,2.33
2019-02-22T15:03:13.699Z,2.22
2019-02-22T15:05:41.139Z,2.08
2019-02-22T15:08:08.591Z,2.37
2019-02-22T15:10:36.018Z,2.17
2019-02-22T15:13:03.482Z,2.98
2019-02-22T15:15:40.542Z,2.47
2019-02-22T15:18:08.039Z,2.60
2019-02-22T15:20:35.503Z,2.65
2019-02-22T15:23:02.961Z,2.40
2019-02-22T15:25:30.392Z,2.40
2019-02-22T15:27:57.943Z,2.50
2019-02-22T15:30:25.576Z,2.80
2019-02-22T15:32:53.057Z,2.58
2019-02-22T15:35:20.859Z,2.42
2019-02-22T15:37:48.356Z,1.92
2019-02-22T15:40:15.969Z,2.55
2019-02-22T15:42:43.577Z,2.12
2019-02-22T15:45:12.059Z,2.25
2019-02-22T15:47:39.755Z,3.10
2019-02-22T15:50:09.554Z,1.95
2019-02-22T15:52:37.642Z,2.00
2019-02-22T15:55:05.558Z,2.25
2019-02-22T15:57:33.184Z,1.85
2019-02-22T16:00:00.723Z,1.87
2019-02-22T16:02:28.322Z,2.20
2019-02-22T16:04:59.584Z,2.40
2019-02-22T16:07:27.659Z,4.72
2019-02-22T16:09:55.207Z,2.87
2019-02-22T16:12:22.659Z,2.10
2019-02-22T16:14:50.075Z,2.20
2019-02-22T16:17:17.573Z,2.42
2019-02-22T16:19:45.044Z,4.40
2019-02-22T16:22:12.818Z,1.60
2019-02-22T16:24:40.257Z,3.00
2019-02-22T16:27:07.706Z,2.90
2019-02-22T16:29:35.147Z,2.80
2019-02-22T16:32:03.315Z,2.58
2019-02-22T16:34:30.763Z,2.30
2019-02-22T16:36:58.251Z,2.15
2019-02-22T16:39:25.693Z,2.35
2019-02-22T16:41:53.142Z,2.65
2019-02-22T16:44:20.595Z,2.47
2019-02-22T16:46:48.131Z,2.25
2019-02-22T16:49:15.512Z,2.52
2019-02-22T16:52:02.403Z,2.55
2019-02-22T16:54:29.878Z,2.10
2019-02-22T16:56:57.285Z,2.20
2019-02-22T16:59:24.734Z,2.33
2019-02-22T17:01:52.170Z,2.02
2019-02-22T17:04:19.649Z,2.30
2019-02-22T17:06:47.173Z,1.98
2019-02-22T17:09:14.747Z,2.52
2019-02-22T17:11:42.452Z,2.50
2019-02-22T17:14:09.964Z,2.77
2019-02-22T17:16:45.437Z,2.77
2019-02-22T17:19:06.947Z,2.60
2019-02-22T17:21:34.505Z,2.83
2019-02-22T17:24:02.127Z,2.87
2019-02-22T17:26:29.726Z,2.85
2019-02-22T17:28:57.359Z,2.70
2019-02-22T17:31:24.965Z,2.90
2019-02-22T17:33:53.019Z,2.53
2019-02-22T17:36:26.731Z,2.20
2019-02-22T17:38:49.967Z,2.27
2019-02-22T17:41:17.506Z,2.13
2019-02-22T17:43:45.127Z,2.00
2019-02-22T17:46:12.693Z,2.37
2019-02-22T17:48:40.167Z,2.60
2019-02-22T17:51:07.635Z,2.30
2019-02-22T17:53:35.163Z,2.23
2019-02-22T17:56:03.005Z,2.20
2019-02-22T17:58:30.511Z,2.03
2019-02-22T18:03:23.927Z,2.47
2019-02-22T18:05:52.918Z,2.40
2019-02-22T18:08:20.502Z,2.50
2019-02-22T18:10:48.145Z,2.97
2019-02-22T18:13:15.964Z,2.80
2019-02-22T18:15:43.490Z,2.97
2019-02-22T18:18:11.091Z,2.80
2019-02-22T18:20:38.824Z,2.97
2019-02-22T18:23:06.298Z,3.10
2019-02-22T18:25:33.782Z,3.60
2019-02-22T18:28:01.219Z,3.13
2019-02-22T18:30:28.720Z,2.70
2019-02-22T18:32:56.183Z,2.90
2019-02-22T18:35:23.664Z,3.63
2019-02-22T18:37:51.154Z,2.80
2019-02-22T18:40:18.911Z,2.97
2019-02-22T18:42:46.365Z,3.20
2019-02-22T18:45:13.838Z,3.57
2019-02-22T18:47:41.281Z,3.20
2019-02-22T18:50:09.334Z,4.00
2019-02-22T18:52:36.800Z,3.83
2019-02-22T18:55:04.429Z,3.43
2019-02-22T18:57:31.987Z,4.13
2019-02-22T18:59:59.769Z,3.77
2019-02-22T19:02:27.231Z,4.07
2019-02-22T19:04:54.714Z,5.17
2019-02-22T19:07:22.188Z,5.20
2019-02-22T19:09:49.658Z,5.27
2019-02-22T19:12:17.119Z,5.97
2019-02-22T19:14:44.563Z,6.03
2019-02-22T19:17:12.046Z,5.53
2019-02-22T19:19:39.532Z,5.67
2019-02-22T19:22:06.996Z,5.40
2019-02-22T19:24:35.378Z,6.67
2019-02-22T19:27:02.795Z,5.60
2019-02-22T19:29:30.256Z,6.53
2019-02-22T19:31:57.767Z,6.10
2019-02-22T19:34:25.218Z,7.23
2019-02-22T19:36:52.758Z,7.37
2019-02-22T19:39:20.214Z,8.13
2019-02-22T19:41:47.730Z,7.20
2019-02-22T19:44:15.186Z,7.33
2019-02-22T19:46:42.653Z,8.37
2019-02-22T19:49:10.151Z,8.53
2019-02-22T19:51:37.618Z,8.63
2019-02-22T19:54:05.135Z,8.40
2019-02-22T19:56:32.601Z,8.50
2019-02-22T19:59:00.070Z,9.17
2019-02-22T20:01:27.611Z,9.50
2019-02-22T20:03:55.090Z,9.40
2019-02-22T20:06:22.551Z,9.53
2019-02-22T20:08:50.525Z,8.70
2019-02-22T20:11:18.082Z,11.17
2019-02-22T20:13:45.560Z,10.30
2019-02-22T20:16:13.016Z,9.93
2019-02-22T20:18:40.519Z,10.80
2019-02-22T20:21:07.998Z,10.73
2019-02-22T20:23:35.514Z,11.20
2019-02-22T20:26:04.378Z,11.47
2019-02-22T20:28:31.850Z,11.83
2019-02-22T20:30:59.362Z,11.77
2019-02-22T20:33:26.960Z,11.83
2019-02-22T20:35:55.159Z,11.27
2019-02-22T20:38:22.736Z,12.37
2019-02-22T20:40:50.234Z,11.80
2019-02-22T20:43:17.719Z,12.60
2019-02-22T20:45:45.231Z,13.77
2019-02-22T20:48:12.834Z,12.37
2019-02-22T20:50:40.682Z,12.43
2019-02-22T20:53:08.090Z,11.13
2019-02-22T20:55:35.587Z,12.80
2019-02-22T20:58:04.812Z,14.17
2019-02-22T21:00:32.283Z,13.17
2019-02-22T21:03:19.246Z,12.87
2019-02-22T21:05:47.053Z,12.93
2019-02-22T21:08:14.538Z,12.00
2019-02-22T21:10:42.000Z,13.00
2019-02-22T21:13:09.476Z,12.90
2019-02-22T21:15:36.952Z,11.93
2019-02-22T21:18:15.588Z,12.53
2019-02-22T21:20:33.760Z,13.13
2019-02-22T21:23:01.293Z,12.80
2019-02-22T21:25:30.822Z,12.87
2019-02-22T21:27:58.772Z,12.53
2019-02-22T21:30:26.253Z,12.63
2019-02-22T21:32:53.788Z,13.40
2019-02-22T21:35:21.316Z,13.10
2019-02-22T21:37:48.794Z,11.97
2019-02-22T21:40:16.270Z,11.77
2019-02-22T21:42:43.760Z,12.27
2019-02-22T21:45:11.403Z,12.80
2019-02-22T21:47:38.890Z,13.00
2019-02-22T21:50:08.380Z,12.53
2019-02-22T21:52:36.049Z,12.47
2019-02-22T21:55:03.650Z,12.70
2019-02-22T21:57:31.172Z,12.90
2019-02-22T21:59:58.751Z,12.80
2019-02-22T22:02:26.254Z,12.57
2019-02-22T22:04:53.739Z,12.63
2019-02-22T22:07:21.231Z,11.87
2019-02-22T22:09:48.712Z,12.70
2019-02-22T22:12:16.251Z,13.10
2019-02-22T22:14:43.704Z,12.73
2019-02-22T22:17:11.187Z,11.90
2019-02-22T22:19:38.645Z,12.87
2019-02-22T22:22:06.146Z,13.03
2019-02-22T22:24:34.759Z,12.67
2019-02-22T22:27:02.256Z,12.47
2019-02-22T22:29:29.719Z,13.00
2019-02-22T22:31:57.191Z,12.70
2019-02-22T22:34:24.729Z,12.77
2019-02-22T22:36:52.149Z,12.17
2019-02-22T22:39:19.591Z,11.87
2019-02-22T22:41:47.091Z,12.80
2019-02-22T22:44:14.544Z,12.53
2019-02-22T22:46:42.039Z,12.70
2019-02-22T22:49:09.491Z,13.30
2019-02-22T22:51:36.915Z,13.50
2019-02-22T22:54:04.399Z,13.23
2019-02-22T22:56:31.828Z,12.07
2019-02-22T22:58:59.305Z,13.03
2019-02-22T23:01:28.562Z,13.67
2019-02-22T23:03:56.080Z,12.30
2019-02-22T23:06:23.539Z,12.43
2019-02-22T23:08:51.034Z,13.40
2019-02-22T23:11:18.471Z,12.43
2019-02-22T23:13:45.948Z,11.80
2019-02-22T23:16:13.444Z,12.37
2019-02-22T23:18:40.988Z,11.97
2019-02-22T23:21:08.487Z,11.30
2019-02-22T23:23:35.993Z,11.03
2019-02-22T23:26:03.460Z,11.47
2019-02-22T23:28:30.929Z,10.77
2019-02-22T23:30:59.804Z,11.73
2019-02-22T23:33:27.388Z,10.47
2019-02-22T23:35:54.827Z,9.87
2019-02-22T23:38:22.674Z,10.37
2019-02-22T23:40:50.156Z,9.80
2019-02-22T23:43:17.615Z,9.87
2019-02-22T23:45:45.094Z,10.47
2019-02-22T23:48:12.587Z,11.10
2019-02-22T23:50:40.048Z,10.30
2019-02-22T23:53:07.507Z,11.23
2019-02-22T23:55:34.963Z,10.10
2019-02-22T23:58:02.443Z,11.47
